Diana, West Virginia
Current Conditions -  °F | °C
As of 7:15 PM on Monday 20 Oct 2014 (Local Time) from KW22 Reporting Station
NA  
Wind Chill: 54°   Ceiling: NA
Heat Index: 54°   Visibility: 10mi
Dew Point: 43°   Wind: 0mph
Humidity: 67%   Direction: NA
Pressure: 29.93"   Gusts: NA
Location:  38.57°N, 80.44°W
Report Text: KW22 202315Z AUTO 00000KT 10SM 12/06 A2993 RMK AO2
Loading
Personal Weather Stations






























Interactive Weather Map New forecast layout! Learn more

10-Day Weather Forecast

Advertisements
Track Severe Weather on mobile